sensor_id;sensor_type;location;lat;lon;timestamp;temperature;humidity
52513;DHT22;38422;53.172;6.974;2023-03-24T00:00:40;11.70;99.90
52513;DHT22;38422;53.172;6.974;2023-03-24T00:03:06;11.70;99.90
52513;DHT22;38422;53.172;6.974;2023-03-24T00:05:32;11.70;99.90
52513;DHT22;38422;53.172;6.974;2023-03-24T00:07:58;11.60;99.90
52513;DHT22;38422;53.172;6.974;2023-03-24T00:10:24;11.60;99.90
52513;DHT22;38422;53.172;6.974;2023-03-24T00:12:50;11.60;99.90
52513;DHT22;38422;53.172;6.974;2023-03-24T00:15:18;11.60;99.90
52513;DHT22;38422;53.172;6.974;2023-03-24T00:17:46;11.60;99.90
52513;DHT22;38422;53.172;6.974;2023-03-24T00:20:14;11.60;99.90
52513;DHT22;38422;53.172;6.974;2023-03-24T00:22:49;11.60;99.90
52513;DHT22;38422;53.172;6.974;2023-03-24T00:25:22;11.60;99.90
52513;DHT22;38422;53.172;6.974;2023-03-24T00:27:49;11.60;99.90
52513;DHT22;38422;53.172;6.974;2023-03-24T00:30:17;11.60;99.90
52513;DHT22;38422;53.172;6.974;2023-03-24T00:32:44;11.50;99.90
52513;DHT22;38422;53.172;6.974;2023-03-24T00:35:12;11.60;99.90
52513;DHT22;38422;53.172;6.974;2023-03-24T00:37:39;11.50;99.90
52513;DHT22;38422;53.172;6.974;2023-03-24T00:40:09;11.50;99.90
52513;DHT22;38422;53.172;6.974;2023-03-24T00:42:38;11.50;99.90
52513;DHT22;38422;53.172;6.974;2023-03-24T00:45:06;11.50;99.90
52513;DHT22;38422;53.172;6.974;2023-03-24T00:47:33;11.50;99.90
52513;DHT22;38422;53.172;6.974;2023-03-24T00:50:08;11.50;99.90
52513;DHT22;38422;53.172;6.974;2023-03-24T00:52:34;11.50;99.90
52513;DHT22;38422;53.172;6.974;2023-03-24T00:55:02;11.50;99.90
52513;DHT22;38422;53.172;6.974;2023-03-24T00:57:29;11.40;99.90
52513;DHT22;38422;53.172;6.974;2023-03-24T01:00:00;11.50;99.90
52513;DHT22;38422;53.172;6.974;2023-03-24T01:02:31;11.40;99.90
52513;DHT22;38422;53.172;6.974;2023-03-24T01:04:59;11.40;99.90
52513;DHT22;38422;53.172;6.974;2023-03-24T01:07:27;11.40;99.90
52513;DHT22;38422;53.172;6.974;2023-03-24T01:09:55;11.40;99.90
52513;DHT22;38422;53.172;6.974;2023-03-24T01:12:26;11.40;99.90
52513;DHT22;38422;53.172;6.974;2023-03-24T01:14:53;11.40;99.90
52513;DHT22;38422;53.172;6.974;2023-03-24T01:17:20;11.40;99.90
52513;DHT22;38422;53.172;6.974;2023-03-24T01:19:54;11.40;99.90
52513;DHT22;38422;53.172;6.974;2023-03-24T01:22:21;11.40;99.90
52513;DHT22;38422;53.172;6.974;2023-03-24T01:24:48;11.30;99.90
52513;DHT22;38422;53.172;6.974;2023-03-24T01:27:14;11.30;99.90
52513;DHT22;38422;53.172;6.974;2023-03-24T01:29:40;11.40;99.90
52513;DHT22;38422;53.172;6.974;2023-03-24T01:32:07;11.30;99.90
52513;DHT22;38422;53.172;6.974;2023-03-24T01:34:33;11.30;99.90
52513;DHT22;38422;53.172;6.974;2023-03-24T01:36:59;11.30;99.90
52513;DHT22;38422;53.172;6.974;2023-03-24T01:39:25;11.30;99.90
52513;DHT22;38422;53.172;6.974;2023-03-24T01:41:52;11.30;99.90
52513;DHT22;38422;53.172;6.974;2023-03-24T01:46:53;11.30;99.90
52513;DHT22;38422;53.172;6.974;2023-03-24T01:49:20;11.30;99.90
52513;DHT22;38422;53.172;6.974;2023-03-24T01:51:47;11.30;99.90
52513;DHT22;38422;53.172;6.974;2023-03-24T01:54:29;11.30;99.90
52513;DHT22;38422;53.172;6.974;2023-03-24T01:57:02;11.30;99.90
52513;DHT22;38422;53.172;6.974;2023-03-24T01:59:31;11.30;99.90
52513;DHT22;38422;53.172;6.974;2023-03-24T02:01:58;11.30;99.90
52513;DHT22;38422;53.172;6.974;2023-03-24T02:04:38;11.30;99.90
52513;DHT22;38422;53.172;6.974;2023-03-24T02:07:35;11.30;99.90
52513;DHT22;38422;53.172;6.974;2023-03-24T02:10:07;11.30;99.90
52513;DHT22;38422;53.172;6.974;2023-03-24T02:12:34;11.30;99.90
52513;DHT22;38422;53.172;6.974;2023-03-24T02:15:01;11.30;99.90
52513;DHT22;38422;53.172;6.974;2023-03-24T02:25:48;11.30;99.90
52513;DHT22;38422;53.172;6.974;2023-03-24T02:42:25;11.30;99.90
52513;DHT22;38422;53.172;6.974;2023-03-24T02:47:40;11.30;99.90
52513;DHT22;38422;53.172;6.974;2023-03-24T02:50:28;11.30;99.90
52513;DHT22;38422;53.172;6.974;2023-03-24T02:53:27;11.30;99.90
52513;DHT22;38422;53.172;6.974;2023-03-24T02:56:16;11.40;99.90
52513;DHT22;38422;53.172;6.974;2023-03-24T03:02:02;11.40;99.90
52513;DHT22;38422;53.172;6.974;2023-03-24T03:04:46;11.40;99.90
52513;DHT22;38422;53.172;6.974;2023-03-24T03:07:19;11.40;99.90
52513;DHT22;38422;53.172;6.974;2023-03-24T03:09:54;11.40;99.90
52513;DHT22;38422;53.172;6.974;2023-03-24T03:12:23;11.40;99.90
52513;DHT22;38422;53.172;6.974;2023-03-24T03:14:54;11.40;99.90
52513;DHT22;38422;53.172;6.974;2023-03-24T03:17:26;11.50;99.90
52513;DHT22;38422;53.172;6.974;2023-03-24T03:19:59;11.40;99.90
52513;DHT22;38422;53.172;6.974;2023-03-24T03:22:37;11.40;99.90
52513;DHT22;38422;53.172;6.974;2023-03-24T03:25:07;11.50;99.90
52513;DHT22;38422;53.172;6.974;2023-03-24T03:27:36;11.50;99.90
52513;DHT22;38422;53.172;6.974;2023-03-24T03:33:09;11.50;99.90
52513;DHT22;38422;53.172;6.974;2023-03-24T03:35:57;11.50;99.90
52513;DHT22;38422;53.172;6.974;2023-03-24T03:41:18;11.50;99.90
52513;DHT22;38422;53.172;6.974;2023-03-24T03:43:46;11.50;99.90
52513;DHT22;38422;53.172;6.974;2023-03-24T03:46:12;11.50;99.90
52513;DHT22;38422;53.172;6.974;2023-03-24T03:48:39;11.50;99.90
52513;DHT22;38422;53.172;6.974;2023-03-24T03:51:05;11.60;99.90
52513;DHT22;38422;53.172;6.974;2023-03-24T03:53:47;11.60;99.90
52513;DHT22;38422;53.172;6.974;2023-03-24T03:56:18;11.60;99.90
52513;DHT22;38422;53.172;6.974;2023-03-24T03:58:45;11.60;99.90
52513;DHT22;38422;53.172;6.974;2023-03-24T04:01:23;11.60;99.90
52513;DHT22;38422;53.172;6.974;2023-03-24T04:04:21;11.60;99.90
52513;DHT22;38422;53.172;6.974;2023-03-24T04:15:12;11.50;99.90
52513;DHT22;38422;53.172;6.974;2023-03-24T04:20:47;11.40;99.90
52513;DHT22;38422;53.172;6.974;2023-03-24T04:23:41;11.40;99.90
52513;DHT22;38422;53.172;6.974;2023-03-24T04:26:28;11.30;99.90
52513;DHT22;38422;53.172;6.974;2023-03-24T04:34:52;11.20;99.90
52513;DHT22;38422;53.172;6.974;2023-03-24T04:37:26;11.10;99.90
52513;DHT22;38422;53.172;6.974;2023-03-24T04:39:54;11.10;99.90
52513;DHT22;38422;53.172;6.974;2023-03-24T04:42:29;11.10;99.90
52513;DHT22;38422;53.172;6.974;2023-03-24T04:44:56;11.00;99.90
52513;DHT22;38422;53.172;6.974;2023-03-24T04:47:25;10.90;99.90
52513;DHT22;38422;53.172;6.974;2023-03-24T04:50:00;10.90;99.90
52513;DHT22;38422;53.172;6.974;2023-03-24T04:52:26;10.90;99.90
52513;DHT22;38422;53.172;6.974;2023-03-24T04:54:52;10.90;99.90
52513;DHT22;38422;53.172;6.974;2023-03-24T04:57:18;10.90;99.90
52513;DHT22;38422;53.172;6.974;2023-03-24T04:59:43;10.80;99.90
52513;DHT22;38422;53.172;6.974;2023-03-24T05:02:10;10.80;99.90
52513;DHT22;38422;53.172;6.974;2023-03-24T05:04:36;10.80;99.90
52513;DHT22;38422;53.172;6.974;2023-03-24T05:07:02;10.70;99.90
52513;DHT22;38422;53.172;6.974;2023-03-24T05:09:28;10.70;99.90
52513;DHT22;38422;53.172;6.974;2023-03-24T05:11:56;10.60;99.90
52513;DHT22;38422;53.172;6.974;2023-03-24T05:14:22;10.60;99.90
52513;DHT22;38422;53.172;6.974;2023-03-24T05:16:48;10.50;99.90
52513;DHT22;38422;53.172;6.974;2023-03-24T05:19:14;10.50;99.90
52513;DHT22;38422;53.172;6.974;2023-03-24T05:21:40;10.50;99.90
52513;DHT22;38422;53.172;6.974;2023-03-24T05:24:06;10.50;99.90
52513;DHT22;38422;53.172;6.974;2023-03-24T05:26:32;10.40;99.90
52513;DHT22;38422;53.172;6.974;2023-03-24T05:28:58;10.40;99.90
52513;DHT22;38422;53.172;6.974;2023-03-24T05:31:24;10.30;99.90
52513;DHT22;38422;53.172;6.974;2023-03-24T05:33:50;10.40;99.90
52513;DHT22;38422;53.172;6.974;2023-03-24T05:36:16;10.40;99.90
52513;DHT22;38422;53.172;6.974;2023-03-24T05:38:42;10.30;99.90
52513;DHT22;38422;53.172;6.974;2023-03-24T05:41:08;10.30;99.90
52513;DHT22;38422;53.172;6.974;2023-03-24T05:43:34;10.30;99.90
52513;DHT22;38422;53.172;6.974;2023-03-24T05:45:59;10.30;99.90
52513;DHT22;38422;53.172;6.974;2023-03-24T05:48:26;10.30;99.90
52513;DHT22;38422;53.172;6.974;2023-03-24T05:50:52;10.30;99.90
52513;DHT22;38422;53.172;6.974;2023-03-24T05:53:18;10.30;99.90
52513;DHT22;38422;53.172;6.974;2023-03-24T05:55:47;10.20;99.90
52513;DHT22;38422;53.172;6.974;2023-03-24T05:58:12;10.20;99.90
52513;DHT22;38422;53.172;6.974;2023-03-24T06:00:40;10.20;99.90
52513;DHT22;38422;53.172;6.974;2023-03-24T06:03:05;10.20;99.90
52513;DHT22;38422;53.172;6.974;2023-03-24T06:05:31;10.20;99.90
52513;DHT22;38422;53.172;6.974;2023-03-24T06:07:57;10.20;99.90
52513;DHT22;38422;53.172;6.974;2023-03-24T06:10:26;10.20;99.90
52513;DHT22;38422;53.172;6.974;2023-03-24T06:12:53;10.20;99.90
52513;DHT22;38422;53.172;6.974;2023-03-24T06:15:20;10.20;99.90
52513;DHT22;38422;53.172;6.974;2023-03-24T06:17:46;10.20;99.90
52513;DHT22;38422;53.172;6.974;2023-03-24T06:20:12;10.20;99.90
52513;DHT22;38422;53.172;6.974;2023-03-24T06:22:44;10.20;99.90
52513;DHT22;38422;53.172;6.974;2023-03-24T06:25:11;10.20;99.90
52513;DHT22;38422;53.172;6.974;2023-03-24T06:27:37;10.20;99.90
52513;DHT22;38422;53.172;6.974;2023-03-24T06:30:04;10.20;99.90
52513;DHT22;38422;53.172;6.974;2023-03-24T06:32:29;10.20;99.90
52513;DHT22;38422;53.172;6.974;2023-03-24T06:34:55;10.30;99.90
52513;DHT22;38422;53.172;6.974;2023-03-24T06:37:21;10.20;99.90
52513;DHT22;38422;53.172;6.974;2023-03-24T06:39:47;10.20;99.90
52513;DHT22;38422;53.172;6.974;2023-03-24T06:42:13;10.20;99.90
52513;DHT22;38422;53.172;6.974;2023-03-24T06:44:39;10.20;99.90
52513;DHT22;38422;53.172;6.974;2023-03-24T06:47:05;10.20;99.90
52513;DHT22;38422;53.172;6.974;2023-03-24T06:49:31;10.20;99.90
52513;DHT22;38422;53.172;6.974;2023-03-24T06:52:00;10.20;99.90
52513;DHT22;38422;53.172;6.974;2023-03-24T06:54:26;10.20;99.90
52513;DHT22;38422;53.172;6.974;2023-03-24T06:56:52;10.20;99.90
52513;DHT22;38422;53.172;6.974;2023-03-24T06:59:18;10.20;99.90
52513;DHT22;38422;53.172;6.974;2023-03-24T07:01:51;10.20;99.90
52513;DHT22;38422;53.172;6.974;2023-03-24T07:04:18;10.20;99.90
52513;DHT22;38422;53.172;6.974;2023-03-24T07:06:44;10.20;99.90
52513;DHT22;38422;53.172;6.974;2023-03-24T07:09:10;10.20;99.90
52513;DHT22;38422;53.172;6.974;2023-03-24T07:11:37;10.20;99.90
52513;DHT22;38422;53.172;6.974;2023-03-24T07:14:02;10.20;99.90
52513;DHT22;38422;53.172;6.974;2023-03-24T07:16:28;10.30;99.90
52513;DHT22;38422;53.172;6.974;2023-03-24T07:18:54;10.30;99.90
52513;DHT22;38422;53.172;6.974;2023-03-24T07:21:20;10.30;99.90
52513;DHT22;38422;53.172;6.974;2023-03-24T07:23:46;10.30;99.90
52513;DHT22;38422;53.172;6.974;2023-03-24T07:26:11;10.40;99.90
52513;DHT22;38422;53.172;6.974;2023-03-24T07:28:37;10.40;99.90
52513;DHT22;38422;53.172;6.974;2023-03-24T07:31:04;10.40;99.90
52513;DHT22;38422;53.172;6.974;2023-03-24T07:33:31;10.40;99.90
52513;DHT22;38422;53.172;6.974;2023-03-24T07:35:57;10.40;99.90
52513;DHT22;38422;53.172;6.974;2023-03-24T07:38:25;10.40;99.90
52513;DHT22;38422;53.172;6.974;2023-03-24T07:40:51;10.40;99.90
52513;DHT22;38422;53.172;6.974;2023-03-24T07:43:16;10.40;99.90
52513;DHT22;38422;53.172;6.974;2023-03-24T07:45:45;10.40;99.90
52513;DHT22;38422;53.172;6.974;2023-03-24T07:48:11;10.50;99.90
52513;DHT22;38422;53.172;6.974;2023-03-24T07:50:37;10.50;99.90
52513;DHT22;38422;53.172;6.974;2023-03-24T07:53:03;10.50;99.90
52513;DHT22;38422;53.172;6.974;2023-03-24T07:55:28;10.50;99.90
52513;DHT22;38422;53.172;6.974;2023-03-24T07:57:54;10.50;99.90
52513;DHT22;38422;53.172;6.974;2023-03-24T08:00:21;10.60;99.90
52513;DHT22;38422;53.172;6.974;2023-03-24T08:02:51;10.60;99.90
52513;DHT22;38422;53.172;6.974;2023-03-24T08:05:18;10.60;99.90
52513;DHT22;38422;53.172;6.974;2023-03-24T08:07:50;10.70;99.90
52513;DHT22;38422;53.172;6.974;2023-03-24T08:10:29;10.70;99.90
52513;DHT22;38422;53.172;6.974;2023-03-24T08:12:56;10.70;99.90
52513;DHT22;38422;53.172;6.974;2023-03-24T08:15:22;10.70;99.90
52513;DHT22;38422;53.172;6.974;2023-03-24T08:17:49;10.70;99.90
52513;DHT22;38422;53.172;6.974;2023-03-24T08:20:16;10.70;99.90
52513;DHT22;38422;53.172;6.974;2023-03-24T08:22:45;10.80;99.90
52513;DHT22;38422;53.172;6.974;2023-03-24T08:25:15;10.80;99.90
52513;DHT22;38422;53.172;6.974;2023-03-24T08:27:41;10.90;99.90
52513;DHT22;38422;53.172;6.974;2023-03-24T08:30:23;10.90;99.90
52513;DHT22;38422;53.172;6.974;2023-03-24T08:32:54;10.90;99.90
52513;DHT22;38422;53.172;6.974;2023-03-24T08:35:26;10.90;99.90
52513;DHT22;38422;53.172;6.974;2023-03-24T08:37:52;10.90;99.90
52513;DHT22;38422;53.172;6.974;2023-03-24T08:40:20;11.00;99.90
52513;DHT22;38422;53.172;6.974;2023-03-24T08:42:57;11.10;99.90
52513;DHT22;38422;53.172;6.974;2023-03-24T08:45:25;11.10;99.90
52513;DHT22;38422;53.172;6.974;2023-03-24T08:47:52;11.10;99.90
52513;DHT22;38422;53.172;6.974;2023-03-24T08:50:20;11.00;99.90
52513;DHT22;38422;53.172;6.974;2023-03-24T08:52:47;11.00;99.90
52513;DHT22;38422;53.172;6.974;2023-03-24T08:55:14;10.90;99.90
52513;DHT22;38422;53.172;6.974;2023-03-24T08:57:40;10.90;99.90
52513;DHT22;38422;53.172;6.974;2023-03-24T09:00:07;10.90;99.90
52513;DHT22;38422;53.172;6.974;2023-03-24T09:02:45;10.80;99.90
52513;DHT22;38422;53.172;6.974;2023-03-24T09:05:11;10.80;99.90
52513;DHT22;38422;53.172;6.974;2023-03-24T09:07:38;10.80;99.90
52513;DHT22;38422;53.172;6.974;2023-03-24T09:10:05;10.80;99.90
52513;DHT22;38422;53.172;6.974;2023-03-24T09:12:32;10.80;99.90
52513;DHT22;38422;53.172;6.974;2023-03-24T09:14:58;10.80;99.90
52513;DHT22;38422;53.172;6.974;2023-03-24T09:17:23;10.70;99.90
52513;DHT22;38422;53.172;6.974;2023-03-24T09:19:49;10.70;99.90
52513;DHT22;38422;53.172;6.974;2023-03-24T09:22:15;10.70;99.90
52513;DHT22;38422;53.172;6.974;2023-03-24T09:24:41;10.80;99.90
52513;DHT22;38422;53.172;6.974;2023-03-24T09:27:09;10.90;99.90
52513;DHT22;38422;53.172;6.974;2023-03-24T09:29:35;11.00;99.90
52513;DHT22;38422;53.172;6.974;2023-03-24T09:32:00;11.10;99.90
52513;DHT22;38422;53.172;6.974;2023-03-24T09:34:26;11.20;99.90
52513;DHT22;38422;53.172;6.974;2023-03-24T09:36:52;11.40;99.90
52513;DHT22;38422;53.172;6.974;2023-03-24T09:39:18;11.60;99.90
52513;DHT22;38422;53.172;6.974;2023-03-24T09:41:43;11.80;99.90
52513;DHT22;38422;53.172;6.974;2023-03-24T09:44:32;11.90;99.90
52513;DHT22;38422;53.172;6.974;2023-03-24T09:47:31;12.20;99.90
52513;DHT22;38422;53.172;6.974;2023-03-24T09:50:06;12.40;99.90
52513;DHT22;38422;53.172;6.974;2023-03-24T09:52:42;12.50;99.90
52513;DHT22;38422;53.172;6.974;2023-03-24T09:55:25;12.60;99.90
52513;DHT22;38422;53.172;6.974;2023-03-24T09:57:52;12.70;99.90
52513;DHT22;38422;53.172;6.974;2023-03-24T10:00:25;12.90;99.90
52513;DHT22;38422;53.172;6.974;2023-03-24T10:02:52;13.10;99.90
52513;DHT22;38422;53.172;6.974;2023-03-24T10:05:42;13.40;99.90
52513;DHT22;38422;53.172;6.974;2023-03-24T10:08:30;13.60;99.90
52513;DHT22;38422;53.172;6.974;2023-03-24T10:11:21;13.80;99.90
52513;DHT22;38422;53.172;6.974;2023-03-24T10:14:39;14.00;99.90
52513;DHT22;38422;53.172;6.974;2023-03-24T10:21:53;14.30;99.90
52513;DHT22;38422;53.172;6.974;2023-03-24T10:25:07;14.40;99.90
52513;DHT22;38422;53.172;6.974;2023-03-24T10:27:27;14.50;99.90
52513;DHT22;38422;53.172;6.974;2023-03-24T10:30:02;14.30;99.90
52513;DHT22;38422;53.172;6.974;2023-03-24T10:32:33;14.10;99.90
52513;DHT22;38422;53.172;6.974;2023-03-24T10:35:00;13.90;99.90
52513;DHT22;38422;53.172;6.974;2023-03-24T10:37:34;14.10;99.90
52513;DHT22;38422;53.172;6.974;2023-03-24T10:40:01;14.10;99.90
52513;DHT22;38422;53.172;6.974;2023-03-24T10:42:32;14.10;99.90
52513;DHT22;38422;53.172;6.974;2023-03-24T10:44:59;14.30;99.90
52513;DHT22;38422;53.172;6.974;2023-03-24T10:47:29;14.40;99.90
52513;DHT22;38422;53.172;6.974;2023-03-24T10:50:00;14.50;99.90
52513;DHT22;38422;53.172;6.974;2023-03-24T10:52:26;14.70;99.90
52513;DHT22;38422;53.172;6.974;2023-03-24T10:54:58;14.80;99.90
52513;DHT22;38422;53.172;6.974;2023-03-24T10:57:28;14.70;99.90
52513;DHT22;38422;53.172;6.974;2023-03-24T11:00:09;14.90;99.90
52513;DHT22;38422;53.172;6.974;2023-03-24T11:06:32;15.10;99.90
52513;DHT22;38422;53.172;6.974;2023-03-24T11:13:18;15.20;99.90
52513;DHT22;38422;53.172;6.974;2023-03-24T11:23:10;15.20;99.90
52513;DHT22;38422;53.172;6.974;2023-03-24T11:25:38;15.70;99.90
52513;DHT22;38422;53.172;6.974;2023-03-24T11:28:14;16.00;99.90
52513;DHT22;38422;53.172;6.974;2023-03-24T11:30:47;16.20;99.90
52513;DHT22;38422;53.172;6.974;2023-03-24T11:33:26;16.30;99.90
52513;DHT22;38422;53.172;6.974;2023-03-24T11:35:53;16.40;99.90
52513;DHT22;38422;53.172;6.974;2023-03-24T11:38:27;16.50;99.90
52513;DHT22;38422;53.172;6.974;2023-03-24T11:40:55;16.60;99.90
52513;DHT22;38422;53.172;6.974;2023-03-24T11:43:48;16.50;99.90
52513;DHT22;38422;53.172;6.974;2023-03-24T11:46:18;16.10;99.90
52513;DHT22;38422;53.172;6.974;2023-03-24T11:48:56;16.10;99.90
52513;DHT22;38422;53.172;6.974;2023-03-24T11:51:27;16.20;99.90
52513;DHT22;38422;53.172;6.974;2023-03-24T11:53:55;16.10;99.90
52513;DHT22;38422;53.172;6.974;2023-03-24T11:56:32;16.10;99.90
52513;DHT22;38422;53.172;6.974;2023-03-24T11:59:58;16.10;99.90
52513;DHT22;38422;53.172;6.974;2023-03-24T12:12:03;15.80;99.90
52513;DHT22;38422;53.172;6.974;2023-03-24T12:17:39;16.10;99.30
52513;DHT22;38422;53.172;6.974;2023-03-24T12:20:30;16.50;99.80
52513;DHT22;38422;53.172;6.974;2023-03-24T12:33:57;17.40;97.50
52513;DHT22;38422;53.172;6.974;2023-03-24T13:01:26;15.90;99.00
52513;DHT22;38422;53.172;6.974;2023-03-24T13:04:25;15.70;99.60
52513;DHT22;38422;53.172;6.974;2023-03-24T13:07:09;15.80;99.50
52513;DHT22;38422;53.172;6.974;2023-03-24T13:13:30;16.40;97.40
52513;DHT22;38422;53.172;6.974;2023-03-24T13:16:08;16.70;97.20
52513;DHT22;38422;53.172;6.974;2023-03-24T13:26:25;17.30;95.00
52513;DHT22;38422;53.172;6.974;2023-03-24T13:32:48;17.10;93.80
52513;DHT22;38422;53.172;6.974;2023-03-24T13:39:01;16.50;93.90
52513;DHT22;38422;53.172;6.974;2023-03-24T13:41:34;16.40;92.80
52513;DHT22;38422;53.172;6.974;2023-03-24T13:51:25;17.20;91.20
52513;DHT22;38422;53.172;6.974;2023-03-24T13:56:26;17.20;91.10
52513;DHT22;38422;53.172;6.974;2023-03-24T14:04:19;16.90;92.20
52513;DHT22;38422;53.172;6.974;2023-03-24T14:06:50;17.10;93.00
52513;DHT22;38422;53.172;6.974;2023-03-24T14:12:07;17.20;93.40
52513;DHT22;38422;53.172;6.974;2023-03-24T14:14:36;17.30;93.50
52513;DHT22;38422;53.172;6.974;2023-03-24T14:17:21;17.60;94.50
52513;DHT22;38422;53.172;6.974;2023-03-24T14:30:00;18.50;94.10
52513;DHT22;38422;53.172;6.974;2023-03-24T14:32:27;18.50;93.40
52513;DHT22;38422;53.172;6.974;2023-03-24T14:34:57;18.30;93.60
52513;DHT22;38422;53.172;6.974;2023-03-24T14:37:26;18.20;93.50
52513;DHT22;38422;53.172;6.974;2023-03-24T14:39:54;18.30;94.50
52513;DHT22;38422;53.172;6.974;2023-03-24T14:45:00;17.70;92.90
52513;DHT22;38422;53.172;6.974;2023-03-24T14:49:58;17.30;93.60
52513;DHT22;38422;53.172;6.974;2023-03-24T14:55:54;17.00;94.70
52513;DHT22;38422;53.172;6.974;2023-03-24T15:02:40;16.80;94.70
52513;DHT22;38422;53.172;6.974;2023-03-24T15:12:03;16.70;96.40
52513;DHT22;38422;53.172;6.974;2023-03-24T15:14:29;16.80;96.70
52513;DHT22;38422;53.172;6.974;2023-03-24T15:17:04;16.80;96.40
52513;DHT22;38422;53.172;6.974;2023-03-24T15:19:30;16.70;96.50
52513;DHT22;38422;53.172;6.974;2023-03-24T15:21:59;16.60;96.70
52513;DHT22;38422;53.172;6.974;2023-03-24T15:24:33;16.50;96.50
52513;DHT22;38422;53.172;6.974;2023-03-24T15:29:36;16.10;97.20
52513;DHT22;38422;53.172;6.974;2023-03-24T15:32:02;16.00;98.10
52513;DHT22;38422;53.172;6.974;2023-03-24T15:34:45;15.90;98.60
52513;DHT22;38422;53.172;6.974;2023-03-24T15:37:35;15.90;99.00
52513;DHT22;38422;53.172;6.974;2023-03-24T15:40:02;15.90;99.20
52513;DHT22;38422;53.172;6.974;2023-03-24T15:42:30;16.00;99.60
52513;DHT22;38422;53.172;6.974;2023-03-24T15:45:10;16.10;99.50
52513;DHT22;38422;53.172;6.974;2023-03-24T15:47:37;16.20;99.00
52513;DHT22;38422;53.172;6.974;2023-03-24T15:50:26;16.20;97.60
52513;DHT22;38422;53.172;6.974;2023-03-24T15:52:58;16.10;98.40
52513;DHT22;38422;53.172;6.974;2023-03-24T15:57:55;15.60;98.30
52513;DHT22;38422;53.172;6.974;2023-03-24T16:00:28;15.50;98.80
52513;DHT22;38422;53.172;6.974;2023-03-24T16:02:55;15.40;98.80
52513;DHT22;38422;53.172;6.974;2023-03-24T16:05:30;15.30;98.80
52513;DHT22;38422;53.172;6.974;2023-03-24T16:08:05;15.30;99.30
52513;DHT22;38422;53.172;6.974;2023-03-24T16:13:16;15.00;99.90
52513;DHT22;38422;53.172;6.974;2023-03-24T16:18:32;14.70;99.90
52513;DHT22;38422;53.172;6.974;2023-03-24T16:21:04;14.70;99.90
52513;DHT22;38422;53.172;6.974;2023-03-24T16:23:33;14.70;99.90
52513;DHT22;38422;53.172;6.974;2023-03-24T16:25:59;14.70;99.90
52513;DHT22;38422;53.172;6.974;2023-03-24T16:28:25;14.60;99.90
52513;DHT22;38422;53.172;6.974;2023-03-24T16:31:00;14.60;99.90
52513;DHT22;38422;53.172;6.974;2023-03-24T16:33:26;14.50;99.90
52513;DHT22;38422;53.172;6.974;2023-03-24T16:35:52;14.50;99.90
52513;DHT22;38422;53.172;6.974;2023-03-24T16:38:18;14.50;99.90
52513;DHT22;38422;53.172;6.974;2023-03-24T16:40:45;14.40;99.90
52513;DHT22;38422;53.172;6.974;2023-03-24T16:43:12;14.30;99.90
52513;DHT22;38422;53.172;6.974;2023-03-24T16:45:39;14.30;99.90
52513;DHT22;38422;53.172;6.974;2023-03-24T16:48:05;14.30;99.90
52513;DHT22;38422;53.172;6.974;2023-03-24T16:50:34;14.30;99.90
52513;DHT22;38422;53.172;6.974;2023-03-24T16:53:01;14.30;99.90
52513;DHT22;38422;53.172;6.974;2023-03-24T16:55:32;14.30;99.90
52513;DHT22;38422;53.172;6.974;2023-03-24T16:57:58;14.40;99.90
52513;DHT22;38422;53.172;6.974;2023-03-24T17:00:24;14.40;99.90
52513;DHT22;38422;53.172;6.974;2023-03-24T17:02:50;14.30;99.90
52513;DHT22;38422;53.172;6.974;2023-03-24T17:05:38;14.30;99.90
52513;DHT22;38422;53.172;6.974;2023-03-24T17:08:59;14.20;99.90
52513;DHT22;38422;53.172;6.974;2023-03-24T17:11:27;14.10;99.90
52513;DHT22;38422;53.172;6.974;2023-03-24T17:13:53;14.00;99.90
52513;DHT22;38422;53.172;6.974;2023-03-24T17:16:21;14.00;99.90
52513;DHT22;38422;53.172;6.974;2023-03-24T17:18:50;13.90;99.90
52513;DHT22;38422;53.172;6.974;2023-03-24T17:21:17;13.70;99.90
52513;DHT22;38422;53.172;6.974;2023-03-24T17:23:45;13.60;99.90
52513;DHT22;38422;53.172;6.974;2023-03-24T17:26:22;13.60;99.90
52513;DHT22;38422;53.172;6.974;2023-03-24T17:28:49;13.50;99.90
52513;DHT22;38422;53.172;6.974;2023-03-24T17:31:15;13.40;99.90
52513;DHT22;38422;53.172;6.974;2023-03-24T17:33:41;13.40;99.90
52513;DHT22;38422;53.172;6.974;2023-03-24T17:36:10;13.30;99.90
52513;DHT22;38422;53.172;6.974;2023-03-24T17:38:37;13.30;99.90
52513;DHT22;38422;53.172;6.974;2023-03-24T17:41:04;13.20;99.90
52513;DHT22;38422;53.172;6.974;2023-03-24T17:43:35;13.10;99.90
52513;DHT22;38422;53.172;6.974;2023-03-24T17:46:02;13.00;99.90
52513;DHT22;38422;53.172;6.974;2023-03-24T17:48:28;12.90;99.90
52513;DHT22;38422;53.172;6.974;2023-03-24T17:50:54;12.90;99.90
52513;DHT22;38422;53.172;6.974;2023-03-24T17:53:21;12.90;99.90
52513;DHT22;38422;53.172;6.974;2023-03-24T17:55:57;12.90;99.90
52513;DHT22;38422;53.172;6.974;2023-03-24T17:58:24;12.90;99.90
52513;DHT22;38422;53.172;6.974;2023-03-24T18:00:56;12.70;99.90
52513;DHT22;38422;53.172;6.974;2023-03-24T18:03:26;12.70;99.90
52513;DHT22;38422;53.172;6.974;2023-03-24T18:05:52;12.70;99.90
52513;DHT22;38422;53.172;6.974;2023-03-24T18:08:18;12.60;99.90
52513;DHT22;38422;53.172;6.974;2023-03-24T18:10:44;12.60;99.90
52513;DHT22;38422;53.172;6.974;2023-03-24T18:13:11;12.50;99.90
52513;DHT22;38422;53.172;6.974;2023-03-24T18:15:40;12.50;99.90
52513;DHT22;38422;53.172;6.974;2023-03-24T18:18:07;12.50;99.90
52513;DHT22;38422;53.172;6.974;2023-03-24T18:20:33;12.50;99.90
52513;DHT22;38422;53.172;6.974;2023-03-24T18:23:00;12.50;99.90
52513;DHT22;38422;53.172;6.974;2023-03-24T18:25:26;12.50;99.90
52513;DHT22;38422;53.172;6.974;2023-03-24T18:27:52;12.40;99.90
52513;DHT22;38422;53.172;6.974;2023-03-24T18:30:19;12.50;99.90
52513;DHT22;38422;53.172;6.974;2023-03-24T18:32:46;12.40;99.90
52513;DHT22;38422;53.172;6.974;2023-03-24T18:35:12;12.40;99.90
52513;DHT22;38422;53.172;6.974;2023-03-24T18:37:42;12.40;99.90
52513;DHT22;38422;53.172;6.974;2023-03-24T18:40:08;12.30;99.90
52513;DHT22;38422;53.172;6.974;2023-03-24T18:42:34;12.30;99.90
52513;DHT22;38422;53.172;6.974;2023-03-24T18:45:00;12.40;99.90
52513;DHT22;38422;53.172;6.974;2023-03-24T18:47:26;12.40;99.90
52513;DHT22;38422;53.172;6.974;2023-03-24T18:49:52;12.30;99.90
52513;DHT22;38422;53.172;6.974;2023-03-24T18:52:18;12.30;99.90
52513;DHT22;38422;53.172;6.974;2023-03-24T18:54:44;12.30;99.90
52513;DHT22;38422;53.172;6.974;2023-03-24T18:57:10;12.20;99.90
52513;DHT22;38422;53.172;6.974;2023-03-24T18:59:36;12.20;99.90
52513;DHT22;38422;53.172;6.974;2023-03-24T19:02:03;12.20;99.90
52513;DHT22;38422;53.172;6.974;2023-03-24T19:04:28;12.20;99.90
52513;DHT22;38422;53.172;6.974;2023-03-24T19:06:55;12.10;99.90
52513;DHT22;38422;53.172;6.974;2023-03-24T19:09:21;12.20;99.90